Time;durP1;ratioP1;P1;durP2;ratioP2;P2;SDS_P1;SDS_P2;PMS_P1;PMS_P2;Temp;Humidity;BMP_temperature;BMP_pressure;BME280_temperature;BME280_humidity;BME280_pressure;Samples;Min_cycle;Max_cycle;Signal;HPM_P1;HPM_P2
2023/10/22 00:01:56;;;;;;;20.13;15.10;;;13.80;99.90;;;;;;5033302;28;20053;-63
2023/10/22 00:04:42;;;;;;;21.00;15.00;;;13.70;99.90;;;;;;5029651;28;20045;-63
2023/10/22 00:07:28;;;;;;;19.20;14.20;;;13.80;99.90;;;;;;5047014;28;20045;-64
2023/10/22 00:10:14;;;;;;;17.45;13.55;;;13.80;99.90;;;;;;5049593;28;20056;-63
2023/10/22 00:13:00;;;;;;;19.38;15.18;;;13.80;99.90;;;;;;5048613;28;20076;-63
2023/10/22 00:15:46;;;;;;;17.38;13.55;;;13.80;99.90;;;;;;5021320;28;20122;-63
2023/10/22 00:18:32;;;;;;;17.48;13.85;;;13.80;99.90;;;;;;5041326;28;20043;-64
2023/10/22 00:21:18;;;;;;;16.25;12.93;;;13.80;99.90;;;;;;5031318;28;20042;-63
2023/10/22 00:24:05;;;;;;;17.88;15.07;;;13.80;99.90;;;;;;5030239;28;20029;-63
2023/10/22 00:26:50;;;;;;;17.48;13.80;;;13.80;99.90;;;;;;5029870;28;20422;-63
2023/10/22 00:29:36;;;;;;;18.02;14.20;;;13.80;99.90;;;;;;5040980;28;20057;-64
2023/10/22 00:32:22;;;;;;;16.02;12.85;;;13.80;99.90;;;;;;5040426;28;20041;-63
2023/10/22 00:35:08;;;;;;;15.90;12.52;;;13.80;99.90;;;;;;5040844;28;20270;-63
2023/10/22 00:37:54;;;;;;;18.70;14.90;;;13.80;99.90;;;;;;5030116;28;20053;-63
2023/10/22 00:40:40;;;;;;;19.33;13.68;;;13.80;99.90;;;;;;5030181;28;20154;-63
2023/10/22 00:43:26;;;;;;;19.88;13.43;;;13.80;99.90;;;;;;5034555;28;20033;-63
2023/10/22 00:46:23;;;;;;;19.65;14.00;;;13.80;99.90;;;;;;5039319;28;20175;-64
2023/10/22 00:49:09;;;;;;;19.20;13.45;;;13.80;99.90;;;;;;5029561;28;20087;-63
2023/10/22 00:51:56;;;;;;;16.95;13.32;;;13.80;99.90;;;;;;5031262;28;20557;-62
2023/10/22 00:54:43;;;;;;;16.35;12.93;;;13.80;99.90;;;;;;5046233;28;20045;-64
2023/10/22 00:57:30;;;;;;;16.35;13.27;;;13.80;99.90;;;;;;5048512;28;20321;-64
2023/10/22 01:00:18;;;;;;;18.33;14.07;;;13.80;99.90;;;;;;5030150;28;20033;-64
2023/10/22 01:03:04;;;;;;;19.20;13.05;;;13.80;99.90;;;;;;5040086;28;20048;-64
2023/10/22 01:05:50;;;;;;;17.63;13.70;;;13.90;99.90;;;;;;5052314;28;20048;-64
2023/10/22 01:08:38;;;;;;;16.77;12.63;;;13.80;99.90;;;;;;5048131;28;20083;-64
2023/10/22 01:11:24;;;;;;;16.35;10.95;;;13.80;99.90;;;;;;5030432;28;20047;-64
2023/10/22 01:14:10;;;;;;;16.50;12.25;;;13.90;99.90;;;;;;5028194;28;20045;-63
2023/10/22 01:16:57;;;;;;;14.90;10.98;;;13.90;99.90;;;;;;5046546;28;20059;-63
2023/10/22 01:19:43;;;;;;;15.63;11.20;;;13.90;99.90;;;;;;5049196;28;20098;-64
2023/10/22 01:22:29;;;;;;;16.27;11.50;;;13.90;99.90;;;;;;5035543;28;20057;-64
2023/10/22 01:25:15;;;;;;;12.52;9.82;;;13.90;99.90;;;;;;5041402;28;20069;-64
2023/10/22 01:28:01;;;;;;;13.60;10.93;;;14.00;99.90;;;;;;5036435;28;20049;-66
2023/10/22 01:30:47;;;;;;;14.88;10.30;;;14.00;99.90;;;;;;5047729;28;20284;-66
2023/10/22 01:33:32;;;;;;;15.05;11.27;;;14.00;99.90;;;;;;5049427;28;20037;-67
2023/10/22 01:36:18;;;;;;;11.75;9.80;;;14.00;99.90;;;;;;5043788;28;20131;-67
2023/10/22 01:39:05;;;;;;;14.02;10.20;;;13.90;99.90;;;;;;5046509;28;20037;-67
2023/10/22 01:41:51;;;;;;;15.38;9.00;;;13.90;99.90;;;;;;5039067;28;20032;-66
2023/10/22 01:44:37;;;;;;;14.32;10.50;;;13.90;99.90;;;;;;5049074;28;20040;-66
2023/10/22 01:47:23;;;;;;;13.35;10.65;;;14.00;99.90;;;;;;5035150;28;20119;-67
2023/10/22 01:50:09;;;;;;;13.07;9.82;;;13.90;99.90;;;;;;5029212;28;20093;-67
2023/10/22 01:52:55;;;;;;;14.35;11.00;;;13.90;99.90;;;;;;5030689;28;20082;-66
2023/10/22 01:55:41;;;;;;;14.93;10.13;;;13.90;99.90;;;;;;5031734;28;20398;-66
2023/10/22 01:58:27;;;;;;;13.80;10.55;;;13.90;99.90;;;;;;5039663;28;20490;-67
2023/10/22 02:01:13;;;;;;;12.55;10.73;;;13.90;99.90;;;;;;5029352;28;20045;-66
2023/10/22 02:03:59;;;;;;;14.93;11.63;;;13.90;99.90;;;;;;5035868;28;20473;-67
2023/10/22 02:06:45;;;;;;;13.73;10.25;;;13.80;99.90;;;;;;5045527;28;20478;-67
2023/10/22 02:09:31;;;;;;;14.27;11.05;;;13.90;99.90;;;;;;5029805;28;20503;-68
2023/10/22 02:12:17;;;;;;;14.93;11.27;;;13.90;99.90;;;;;;5030594;28;20050;-68
2023/10/22 02:15:03;;;;;;;14.68;11.68;;;13.90;99.90;;;;;;5035972;28;20044;-67
2023/10/22 02:17:49;;;;;;;14.38;10.90;;;13.90;99.90;;;;;;5047368;28;20041;-67
2023/10/22 02:20:35;;;;;;;13.13;10.07;;;13.90;99.90;;;;;;5029543;28;20037;-67
2023/10/22 02:23:21;;;;;;;13.02;9.85;;;13.90;99.90;;;;;;5029869;28;20034;-67
2023/10/22 02:26:07;;;;;;;13.43;10.57;;;13.90;99.90;;;;;;5049210;28;20048;-67
2023/10/22 02:28:53;;;;;;;13.32;10.80;;;13.90;99.90;;;;;;5043094;28;20067;-66
2023/10/22 02:31:39;;;;;;;16.80;11.45;;;14.00;99.90;;;;;;5037306;28;20040;-67
2023/10/22 02:34:25;;;;;;;12.50;10.73;;;13.90;99.90;;;;;;5048374;28;20095;-67
2023/10/22 02:37:11;;;;;;;11.90;9.90;;;13.90;99.90;;;;;;5047724;28;20057;-66
2023/10/22 02:39:57;;;;;;;12.60;10.75;;;14.00;99.90;;;;;;5045379;28;20041;-66
2023/10/22 02:42:43;;;;;;;12.95;9.93;;;14.00;99.90;;;;;;5032111;28;20038;-66
2023/10/22 02:45:29;;;;;;;13.55;10.32;;;14.00;99.90;;;;;;5035836;28;20132;-67
2023/10/22 02:48:15;;;;;;;12.23;9.77;;;14.00;99.90;;;;;;5033043;28;20343;-68
2023/10/22 02:51:04;;;;;;;14.25;9.98;;;14.00;99.90;;;;;;5042043;28;20057;-67
2023/10/22 02:53:50;;;;;;;13.55;9.75;;;14.00;99.90;;;;;;5032526;28;20521;-66
2023/10/22 02:56:38;;;;;;;11.43;8.95;;;14.00;99.90;;;;;;5048780;28;20060;-66
2023/10/22 02:59:24;;;;;;;11.35;8.35;;;13.90;99.90;;;;;;5033360;28;20491;-65
2023/10/22 03:02:10;;;;;;;12.93;9.43;;;14.00;99.90;;;;;;5035386;28;20473;-66
2023/10/22 03:04:56;;;;;;;11.55;9.10;;;14.00;99.90;;;;;;5038529;28;20068;-66
2023/10/22 03:07:42;;;;;;;11.90;8.88;;;14.00;99.90;;;;;;5032096;28;20491;-66
2023/10/22 03:10:28;;;;;;;13.05;8.88;;;13.90;99.90;;;;;;5041626;28;20053;-66
2023/10/22 03:13:15;;;;;;;9.73;7.97;;;13.90;99.90;;;;;;5039847;28;20046;-65
2023/10/22 03:16:12;;;;;;;12.32;7.70;;;13.90;99.90;;;;;;5031021;28;20045;-66
2023/10/22 03:18:58;;;;;;;9.95;7.35;;;14.00;99.90;;;;;;5047189;28;20052;-65
2023/10/22 03:21:44;;;;;;;8.18;7.05;;;13.90;99.90;;;;;;5043238;28;20080;-65
2023/10/22 03:24:30;;;;;;;9.88;7.35;;;13.90;99.90;;;;;;5037216;28;20069;-66
2023/10/22 03:27:17;;;;;;;7.25;5.53;;;13.90;99.90;;;;;;5051725;28;20047;-66
2023/10/22 03:30:03;;;;;;;6.93;5.47;;;13.90;99.90;;;;;;5052168;28;20052;-66
2023/10/22 03:32:49;;;;;;;7.20;5.55;;;13.90;99.90;;;;;;5052166;28;20346;-67
2023/10/22 03:35:36;;;;;;;6.07;4.40;;;13.90;99.90;;;;;;5048972;28;20045;-66
2023/10/22 03:38:21;;;;;;;5.90;4.72;;;13.90;99.90;;;;;;5047204;28;20383;-66
2023/10/22 03:41:07;;;;;;;5.40;4.30;;;13.90;99.90;;;;;;5049643;28;20045;-65
2023/10/22 03:43:53;;;;;;;6.32;4.18;;;13.90;99.90;;;;;;5050463;28;20482;-66
2023/10/22 03:46:39;;;;;;;4.55;3.25;;;13.90;99.90;;;;;;5050419;28;20037;-66
2023/10/22 03:49:25;;;;;;;8.60;4.30;;;13.90;99.90;;;;;;5051336;28;20053;-66
2023/10/22 03:52:11;;;;;;;5.40;3.38;;;13.90;99.90;;;;;;5049963;28;20045;-64
2023/10/22 03:54:57;;;;;;;4.45;3.70;;;13.90;99.90;;;;;;5042437;28;20068;-63
2023/10/22 03:57:43;;;;;;;4.63;3.33;;;13.90;99.90;;;;;;5050929;28;20134;-63
2023/10/22 04:00:29;;;;;;;5.32;3.83;;;13.90;99.90;;;;;;5051178;28;20181;-63
2023/10/22 04:03:15;;;;;;;4.55;3.53;;;13.90;99.90;;;;;;5051943;28;20490;-67
2023/10/22 04:06:01;;;;;;;4.68;3.38;;;13.90;99.90;;;;;;5047251;28;20482;-67
2023/10/22 04:08:47;;;;;;;6.22;3.50;;;13.90;99.90;;;;;;5048571;28;20041;-68
2023/10/22 04:11:33;;;;;;;5.35;3.92;;;13.90;99.90;;;;;;5048539;28;20045;-67
2023/10/22 04:14:19;;;;;;;5.47;3.90;;;13.90;99.90;;;;;;5041628;28;20033;-66
2023/10/22 04:17:05;;;;;;;5.18;4.00;;;13.90;99.90;;;;;;5038556;28;20406;-67
2023/10/22 04:19:51;;;;;;;4.95;3.78;;;13.90;99.90;;;;;;5031151;28;20037;-67
2023/10/22 04:22:37;;;;;;;7.65;4.45;;;13.90;99.90;;;;;;5030396;28;20041;-67
2023/10/22 04:25:23;;;;;;;4.07;3.65;;;13.90;99.90;;;;;;5029932;28;20183;-66
2023/10/22 04:28:09;;;;;;;5.57;3.72;;;13.90;99.90;;;;;;5032426;28;20036;-66
2023/10/22 04:30:55;;;;;;;5.90;4.45;;;13.90;99.90;;;;;;5029333;28;20057;-67
2023/10/22 04:33:41;;;;;;;6.22;3.90;;;13.90;99.90;;;;;;5029493;28;20092;-67
2023/10/22 04:36:27;;;;;;;5.05;4.20;;;13.90;99.90;;;;;;5030479;28;20158;-67
2023/10/22 04:39:13;;;;;;;6.55;3.50;;;13.90;99.90;;;;;;5030655;28;20046;-67
2023/10/22 04:41:59;;;;;;;5.47;3.90;;;13.90;99.90;;;;;;5030266;28;20041;-68
2023/10/22 04:44:45;;;;;;;6.28;3.95;;;13.90;99.90;;;;;;5030460;28;20064;-66
2023/10/22 04:47:31;;;;;;;5.72;3.83;;;13.90;99.90;;;;;;5043575;28;20049;-66
2023/10/22 04:50:17;;;;;;;5.50;3.92;;;13.90;99.90;;;;;;5031754;28;20119;-66
2023/10/22 04:53:03;;;;;;;6.15;3.92;;;13.90;99.90;;;;;;5033694;28;20048;-66
2023/10/22 04:55:59;;;;;;;7.65;4.00;;;13.90;99.90;;;;;;5049899;28;20132;-66
2023/10/22 04:58:45;;;;;;;4.63;3.67;;;13.90;99.90;;;;;;5049405;28;20380;-66
2023/10/22 05:01:31;;;;;;;6.50;4.18;;;13.80;99.90;;;;;;5017885;28;20045;-66
2023/10/22 05:04:17;;;;;;;8.02;4.32;;;13.80;99.90;;;;;;5039396;28;20025;-66
2023/10/22 05:07:03;;;;;;;5.55;3.75;;;13.80;99.90;;;;;;5049256;28;20037;-66
2023/10/22 05:09:49;;;;;;;8.23;4.05;;;13.80;99.90;;;;;;5049789;28;20052;-65
2023/10/22 05:12:35;;;;;;;6.03;4.03;;;13.80;99.90;;;;;;5047484;28;20056;-66
2023/10/22 05:15:21;;;;;;;5.45;3.83;;;13.80;99.90;;;;;;5051401;28;20041;-66
2023/10/22 05:18:08;;;;;;;4.75;3.58;;;13.80;99.90;;;;;;5049033;28;20029;-66
2023/10/22 05:21:05;;;;;;;5.57;3.88;;;13.80;99.90;;;;;;5030840;28;20041;-67
2023/10/22 05:23:51;;;;;;;4.85;3.85;;;13.80;99.90;;;;;;5044320;28;20040;-66
2023/10/22 05:26:37;;;;;;;4.60;3.85;;;13.80;99.90;;;;;;5049184;28;20490;-66
2023/10/22 05:29:23;;;;;;;4.68;3.92;;;13.90;99.90;;;;;;5043209;28;20046;-66
2023/10/22 05:32:09;;;;;;;5.82;4.40;;;13.80;99.90;;;;;;5030779;28;20402;-67
2023/10/22 05:34:55;;;;;;;6.93;4.63;;;13.80;99.90;;;;;;5028326;28;20053;-66
2023/10/22 05:37:45;;;;;;;5.35;4.35;;;13.90;99.90;;;;;;5036233;28;20414;-67
2023/10/22 05:40:37;;;;;;;5.95;4.78;;;13.90;99.90;;;;;;5047688;28;20048;-67
2023/10/22 05:43:23;;;;;;;5.75;4.38;;;13.90;99.90;;;;;;5033709;28;20101;-67
2023/10/22 05:46:09;;;;;;;5.80;4.10;;;13.80;99.90;;;;;;5029413;28;20395;-66
2023/10/22 05:48:55;;;;;;;6.80;4.00;;;13.90;99.90;;;;;;5040886;28;20049;-65
2023/10/22 05:51:41;;;;;;;4.88;3.97;;;13.90;99.90;;;;;;5043582;28;20037;-66
2023/10/22 05:54:27;;;;;;;4.40;3.78;;;13.80;99.90;;;;;;5031355;28;20486;-65
2023/10/22 05:57:13;;;;;;;6.18;4.22;;;13.80;99.90;;;;;;5029598;28;20449;-65
2023/10/22 05:59:59;;;;;;;7.15;4.43;;;13.80;99.90;;;;;;5046848;28;20041;-63
2023/10/22 06:02:45;;;;;;;6.03;4.25;;;13.80;99.90;;;;;;5045659;28;20141;-64
2023/10/22 06:05:31;;;;;;;5.38;3.88;;;13.80;99.90;;;;;;5042025;28;20029;-65
2023/10/22 06:08:16;;;;;;;4.95;3.80;;;13.80;99.90;;;;;;5039375;28;20126;-62
2023/10/22 06:11:05;;;;;;;4.88;3.75;;;13.80;99.90;;;;;;5039723;28;20527;-63
2023/10/22 06:13:51;;;;;;;5.05;3.63;;;13.80;99.90;;;;;;5032638;28;20045;-63
2023/10/22 06:16:37;;;;;;;5.80;3.80;;;13.80;99.90;;;;;;5042144;28;20034;-65
2023/10/22 06:19:23;;;;;;;6.07;4.13;;;13.80;99.90;;;;;;5044352;28;20120;-63
2023/10/22 06:22:09;;;;;;;6.55;3.83;;;13.80;99.90;;;;;;5040365;28;20497;-62
2023/10/22 06:24:55;;;;;;;6.10;3.78;;;13.80;99.90;;;;;;5044216;28;20129;-62
2023/10/22 06:27:41;;;;;;;5.03;4.07;;;13.80;99.90;;;;;;5033350;28;20049;-63
2023/10/22 06:30:28;;;;;;;4.28;3.75;;;13.90;99.90;;;;;;5035173;28;20046;-63
2023/10/22 06:33:14;;;;;;;5.10;3.60;;;13.80;99.90;;;;;;5035559;28;20079;-63
2023/10/22 06:36:13;;;;;;;6.03;3.97;;;13.90;99.90;;;;;;5048610;28;20126;-63
2023/10/22 06:38:59;;;;;;;6.40;4.35;;;13.90;99.90;;;;;;5032898;28;20045;-63
2023/10/22 06:41:45;;;;;;;4.57;3.83;;;13.90;99.90;;;;;;5045103;28;20510;-63
2023/10/22 06:44:31;;;;;;;6.47;4.65;;;13.90;99.90;;;;;;5043718;28;20571;-63
2023/10/22 06:47:17;;;;;;;5.50;4.32;;;13.90;99.90;;;;;;5031818;28;21386;-63
2023/10/22 06:50:08;;;;;;;5.22;3.90;;;13.90;99.90;;;;;;5031567;28;20045;-63
2023/10/22 06:52:54;;;;;;;5.30;4.05;;;13.90;99.90;;;;;;5044571;28;20028;-63
2023/10/22 06:55:43;;;;;;;5.20;4.30;;;13.90;99.90;;;;;;5044562;28;20048;-64
2023/10/22 06:58:29;;;;;;;5.20;3.97;;;13.90;99.90;;;;;;5050092;28;20029;-64
2023/10/22 07:01:15;;;;;;;5.30;4.38;;;13.90;99.90;;;;;;5044696;28;20088;-64
2023/10/22 07:04:01;;;;;;;7.63;4.55;;;13.90;99.90;;;;;;5049231;28;20049;-64
2023/10/22 07:06:47;;;;;;;7.28;4.97;;;13.90;99.90;;;;;;5039087;28;20071;-64
2023/10/22 07:09:33;;;;;;;6.57;4.80;;;13.90;99.90;;;;;;5033684;28;20059;-64
2023/10/22 07:12:19;;;;;;;5.68;4.47;;;13.90;99.90;;;;;;5045788;28;20033;-65
2023/10/22 07:15:06;;;;;;;5.95;5.10;;;13.90;99.90;;;;;;5033065;28;20319;-65
2023/10/22 07:17:52;;;;;;;6.25;4.97;;;13.80;99.90;;;;;;5041858;28;20037;-63
2023/10/22 07:20:38;;;;;;;8.00;5.07;;;13.80;99.90;;;;;;5038942;28;20059;-65
2023/10/22 07:23:24;;;;;;;5.95;4.43;;;13.80;99.90;;;;;;5042413;28;20106;-63
2023/10/22 07:26:10;;;;;;;6.15;4.50;;;13.80;99.90;;;;;;5038956;28;20041;-63
2023/10/22 07:28:56;;;;;;;6.50;4.75;;;13.80;99.90;;;;;;5036761;28;20071;-64
2023/10/22 07:31:43;;;;;;;6.65;4.63;;;13.80;99.90;;;;;;5062578;28;20110;-64
2023/10/22 07:34:30;;;;;;;6.32;4.38;;;13.80;99.90;;;;;;5051495;28;20033;-62
2023/10/22 07:37:16;;;;;;;6.57;4.40;;;13.90;99.90;;;;;;5044283;28;20414;-63
2023/10/22 07:40:02;;;;;;;7.13;4.18;;;13.90;99.90;;;;;;5039177;28;20464;-62
2023/10/22 07:42:48;;;;;;;6.15;4.10;;;13.90;99.90;;;;;;5045553;28;20045;-62
2023/10/22 07:45:38;;;;;;;5.18;3.55;;;14.00;99.90;;;;;;5048223;28;20036;-63
2023/10/22 07:48:24;;;;;;;5.32;3.88;;;14.10;99.90;;;;;;5043644;28;20037;-63
2023/10/22 07:51:17;;;;;;;5.82;3.95;;;14.10;99.90;;;;;;5044825;28;20052;-62
2023/10/22 07:54:04;;;;;;;4.40;3.40;;;14.20;99.90;;;;;;5045228;28;20041;-64
2023/10/22 07:56:49;;;;;;;4.30;3.30;;;14.20;99.90;;;;;;5042303;28;20075;-62
2023/10/22 07:59:35;;;;;;;5.22;3.63;;;14.30;99.90;;;;;;5036310;28;20049;-63
2023/10/22 08:02:22;;;;;;;3.60;2.75;;;14.40;99.90;;;;;;5051877;28;20124;-62
2023/10/22 08:05:08;;;;;;;4.90;3.15;;;14.50;99.90;;;;;;5044325;28;20041;-63
2023/10/22 08:07:54;;;;;;;4.38;2.90;;;14.50;99.90;;;;;;5027670;28;20045;-63
2023/10/22 08:10:40;;;;;;;5.88;3.30;;;14.60;99.90;;;;;;5044661;28;20119;-63
2023/10/22 08:13:27;;;;;;;5.10;3.00;;;14.70;99.90;;;;;;5039633;28;20084;-61
2023/10/22 08:16:13;;;;;;;6.53;2.50;;;14.80;99.90;;;;;;5036135;28;20044;-61
2023/10/22 08:18:59;;;;;;;6.05;2.97;;;14.80;99.90;;;;;;5051377;28;20155;-62
2023/10/22 08:21:45;;;;;;;5.63;2.80;;;14.90;99.90;;;;;;5048405;28;20049;-61
2023/10/22 08:24:30;;;;;;;2.88;2.22;;;15.00;99.90;;;;;;5035340;28;20453;-62
2023/10/22 08:27:16;;;;;;;4.25;2.45;;;15.00;99.90;;;;;;5031032;28;20080;-62
2023/10/22 08:30:03;;;;;;;3.88;2.10;;;15.00;99.90;;;;;;5030119;28;20057;-62
2023/10/22 08:32:49;;;;;;;4.03;2.20;;;15.10;99.90;;;;;;5030813;28;20045;-62
2023/10/22 08:35:35;;;;;;;4.47;2.35;;;15.20;99.90;;;;;;5030574;28;20454;-62
2023/10/22 08:38:21;;;;;;;3.40;2.22;;;15.30;99.90;;;;;;5030406;28;20503;-62
2023/10/22 08:41:31;;;;;;;4.45;2.05;;;15.30;99.90;;;;;;5033011;28;20565;-62
2023/10/22 08:44:17;;;;;;;3.40;2.25;;;15.40;99.90;;;;;;5036913;28;20167;-63
2023/10/22 08:47:03;;;;;;;3.05;2.03;;;15.50;99.90;;;;;;5039601;28;20044;-62
2023/10/22 08:49:51;;;;;;;3.83;2.00;;;15.50;99.90;;;;;;5047831;28;20060;-62
2023/10/22 08:52:37;;;;;;;2.83;1.85;;;15.60;99.90;;;;;;5046697;28;20516;-62
2023/10/22 08:55:26;;;;;;;2.53;1.70;;;15.60;99.90;;;;;;5049748;28;20049;-63
2023/10/22 08:58:15;;;;;;;4.13;1.90;;;15.60;99.90;;;;;;5041961;28;20029;-67
2023/10/22 09:01:01;;;;;;;2.15;1.50;;;15.70;99.90;;;;;;5040105;28;20037;-62
2023/10/22 09:03:47;;;;;;;2.95;1.67;;;15.70;99.90;;;;;;5040110;28;20040;-63
2023/10/22 09:06:33;;;;;;;2.70;1.75;;;15.80;99.90;;;;;;5029396;28;20046;-63
2023/10/22 09:09:38;;;;;;;3.17;1.48;;;15.80;99.90;;;;;;5029077;28;20486;-62
2023/10/22 09:12:24;;;;;;;4.85;2.20;;;15.90;99.90;;;;;;5029706;28;20041;-62
2023/10/22 09:15:10;;;;;;;2.60;1.63;;;16.00;99.90;;;;;;5029889;28;20403;-61
2023/10/22 09:18:02;;;;;;;3.95;1.88;;;16.00;99.90;;;;;;5030014;28;20048;-62
2023/10/22 09:20:49;;;;;;;3.72;2.17;;;16.00;99.90;;;;;;5029311;28;20192;-62
2023/10/22 09:23:35;;;;;;;1.65;1.38;;;16.00;99.90;;;;;;5029939;28;20128;-62
2023/10/22 09:26:24;;;;;;;3.47;2.22;;;16.10;99.90;;;;;;5034410;28;20146;-62
2023/10/22 09:29:10;;;;;;;3.65;2.00;;;16.10;99.90;;;;;;5029521;28;20475;-62
2023/10/22 09:31:56;;;;;;;14.30;2.92;;;16.20;99.90;;;;;;5030479;28;20057;-62
2023/10/22 09:34:42;;;;;;;7.47;2.22;;;16.20;99.90;;;;;;5033988;28;20147;-61
2023/10/22 09:37:27;;;;;;;3.00;1.90;;;16.20;99.90;;;;;;5048097;28;20053;-62
2023/10/22 09:40:21;;;;;;;2.83;1.90;;;16.20;99.90;;;;;;5048889;28;20059;-62
2023/10/22 09:43:08;;;;;;;3.15;2.15;;;16.20;99.90;;;;;;5049736;28;20048;-62
2023/10/22 09:45:54;;;;;;;5.13;1.95;;;16.20;99.90;;;;;;5040703;28;20037;-63
2023/10/22 09:48:41;;;;;;;3.58;2.00;;;16.20;99.90;;;;;;5029647;28;20041;-61
2023/10/22 09:51:31;;;;;;;3.58;1.95;;;16.30;99.90;;;;;;5029251;28;20139;-62
2023/10/22 09:54:21;;;;;;;3.45;2.22;;;16.30;99.90;;;;;;5045731;28;20045;-62
2023/10/22 09:57:09;;;;;;;5.00;2.63;;;16.30;99.90;;;;;;5029445;28;20049;-61
2023/10/22 10:00:01;;;;;;;4.25;2.03;;;16.40;99.90;;;;;;5038978;28;20025;-62
2023/10/22 10:02:49;;;;;;;4.43;2.13;;;16.40;99.90;;;;;;5048957;28;20040;-62
2023/10/22 10:05:35;;;;;;;3.45;2.28;;;16.40;99.90;;;;;;5044353;28;20092;-62
2023/10/22 10:08:22;;;;;;;3.10;1.80;;;16.40;99.90;;;;;;5030556;28;20048;-62
2023/10/22 10:11:11;;;;;;;3.28;1.90;;;16.40;99.90;;;;;;5028780;28;20076;-62
2023/10/22 10:13:58;;;;;;;4.10;2.17;;;16.40;99.90;;;;;;5028117;28;20057;-62
2023/10/22 10:16:57;;;;;;;3.33;2.28;;;16.40;99.90;;;;;;5028311;28;20398;-62
2023/10/22 10:19:43;;;;;;;3.53;2.10;;;16.40;99.90;;;;;;5039473;28;20044;-62
2023/10/22 10:22:40;;;;;;;3.22;1.90;;;16.50;99.90;;;;;;5040924;28;20042;-62
2023/10/22 10:25:28;;;;;;;3.53;1.83;;;16.40;99.90;;;;;;5037315;28;20037;-62
2023/10/22 10:28:14;;;;;;;3.13;2.03;;;16.50;99.90;;;;;;5030854;28;20183;-61
2023/10/22 10:31:30;;;;;;;3.45;2.05;;;16.50;99.90;;;;;;5029839;28;20057;-62
2023/10/22 10:34:35;;;;;;;3.20;1.90;;;16.50;99.90;;;;;;5033082;28;20413;-62
2023/10/22 10:37:22;;;;;;;;;;;16.50;99.90;;;;;;5048493;28;20064;-62
2023/10/22 10:40:08;;;;;;;6.70;2.33;;;16.50;99.90;;;;;;5015737;28;20472;-63
2023/10/22 10:42:54;;;;;;;4.57;2.28;;;16.50;99.90;;;;;;5026917;28;20380;-62
2023/10/22 10:46:18;;;;;;;6.35;2.30;;;16.50;99.90;;;;;;5033767;28;20037;-62
2023/10/22 10:49:04;;;;;;;4.05;1.95;;;16.50;99.90;;;;;;5029742;28;20037;-63
2023/10/22 10:52:00;;;;;;;3.47;2.20;;;16.60;99.90;;;;;;5029547;28;20069;-62
2023/10/22 10:55:19;;;;;;;2.67;1.80;;;16.60;99.90;;;;;;5041323;28;20111;-66
2023/10/22 10:58:05;;;;;;;6.95;2.05;;;16.60;99.90;;;;;;5028653;28;20502;-67
2023/10/22 11:00:52;;;;;;;3.03;2.05;;;16.60;99.90;;;;;;5030239;28;20045;-68
2023/10/22 11:03:38;;;;;;;4.57;2.03;;;16.70;99.90;;;;;;5034910;28;20045;-65
2023/10/22 11:06:24;;;;;;;4.57;2.05;;;16.70;99.90;;;;;;5033229;28;20076;-65
2023/10/22 11:09:10;;;;;;;5.05;2.15;;;16.80;99.90;;;;;;5033071;28;20099;-66
2023/10/22 11:11:58;;;;;;;4.82;2.72;;;16.80;99.90;;;;;;5034385;28;20102;-66
2023/10/22 11:14:44;;;;;;;6.68;2.38;;;16.90;99.90;;;;;;5042522;28;20021;-65
2023/10/22 11:17:30;;;;;;;4.40;1.70;;;16.90;99.90;;;;;;5032315;28;20037;-64
2023/10/22 11:20:15;;;;;;;4.22;1.70;;;16.90;99.90;;;;;;5048576;28;20036;-64
2023/10/22 11:23:02;;;;;;;5.45;2.08;;;17.00;99.90;;;;;;5044525;28;20045;-64
2023/10/22 11:25:48;;;;;;;3.83;1.58;;;17.00;99.90;;;;;;5031573;28;20032;-64
2023/10/22 11:28:34;;;;;;;5.57;1.85;;;17.10;99.90;;;;;;5039518;28;20517;-65
2023/10/22 11:31:23;;;;;;;3.55;1.58;;;17.10;99.90;;;;;;5045731;28;20525;-63
2023/10/22 11:34:16;;;;;;;3.03;1.63;;;17.20;99.90;;;;;;5045802;28;20442;-64
2023/10/22 11:37:02;;;;;;;5.45;1.70;;;17.30;99.90;;;;;;5048650;28;20060;-64
2023/10/22 11:39:48;;;;;;;3.70;1.50;;;17.30;99.90;;;;;;5032154;28;20077;-64
2023/10/22 11:42:34;;;;;;;3.17;1.38;;;17.30;99.90;;;;;;5035203;28;20482;-64
2023/10/22 11:45:20;;;;;;;2.33;1.27;;;17.40;99.90;;;;;;5034954;28;20049;-64
2023/10/22 11:48:15;;;;;;;3.00;1.50;;;17.50;99.90;;;;;;5040200;28;20037;-64
2023/10/22 11:51:03;;;;;;;3.08;1.35;;;17.60;99.90;;;;;;5042233;28;20063;-64
2023/10/22 11:53:49;;;;;;;2.28;1.30;;;17.60;99.90;;;;;;5043213;28;20099;-64
2023/10/22 11:56:35;;;;;;;1.88;1.10;;;17.60;99.90;;;;;;5030481;28;20041;-65
2023/10/22 11:59:21;;;;;;;1.48;1.10;;;17.70;99.90;;;;;;5032611;28;20041;-64
2023/10/22 12:02:07;;;;;;;2.33;1.20;;;17.80;99.90;;;;;;5049418;28;20040;-65
2023/10/22 12:04:53;;;;;;;3.03;1.23;;;17.80;99.90;;;;;;5045869;28;20437;-64
2023/10/22 12:07:39;;;;;;;3.80;1.52;;;17.80;99.90;;;;;;5037595;28;20453;-65
2023/10/22 12:10:25;;;;;;;4.30;1.40;;;17.80;99.90;;;;;;5046348;28;20057;-65
2023/10/22 12:13:11;;;;;;;3.90;1.33;;;17.90;99.60;;;;;;5031025;28;20037;-66
2023/10/22 12:15:57;;;;;;;2.97;1.20;;;17.90;99.40;;;;;;5040304;28;20061;-65
2023/10/22 12:18:43;;;;;;;2.70;1.20;;;18.00;99.30;;;;;;5033862;28;20049;-65
2023/10/22 12:21:29;;;;;;;2.40;1.48;;;18.00;99.00;;;;;;5034606;28;20041;-66
2023/10/22 12:24:15;;;;;;;3.15;1.45;;;18.10;98.80;;;;;;5038040;28;20064;-66
2023/10/22 12:27:02;;;;;;;2.47;1.33;;;18.20;98.80;;;;;;5033726;28;20029;-64
2023/10/22 12:29:48;;;;;;;2.28;1.20;;;18.20;98.60;;;;;;5035169;28;20055;-65
2023/10/22 12:32:34;;;;;;;1.67;1.30;;;18.30;98.20;;;;;;5042796;28;20065;-65
2023/10/22 12:35:20;;;;;;;3.20;1.40;;;18.30;98.00;;;;;;5049137;28;20482;-65
2023/10/22 12:38:06;;;;;;;2.50;1.92;;;18.30;97.80;;;;;;5050164;28;20525;-65
2023/10/22 12:40:51;;;;;;;3.70;1.25;;;18.30;97.60;;;;;;5043407;28;20041;-65
2023/10/22 12:43:37;;;;;;;3.70;1.42;;;18.20;97.30;;;;;;5038236;28;20048;-67
2023/10/22 12:46:23;;;;;;;3.75;1.60;;;18.20;97.20;;;;;;5046553;28;20127;-67
2023/10/22 12:49:09;;;;;;;4.32;1.75;;;18.20;97.30;;;;;;5041287;28;20560;-68
2023/10/22 12:51:55;;;;;;;1.98;1.17;;;18.20;97.30;;;;;;5039109;28;20494;-67
2023/10/22 12:54:44;;;;;;;3.78;1.70;;;18.20;97.20;;;;;;5036614;28;20045;-69
2023/10/22 12:57:30;;;;;;;2.47;1.30;;;18.20;97.50;;;;;;5046315;28;20076;-67
2023/10/22 13:00:16;;;;;;;2.95;1.63;;;18.30;97.30;;;;;;5030526;28;20037;-65
2023/10/22 13:03:03;;;;;;;3.17;1.52;;;18.30;97.00;;;;;;5055706;28;20074;-65
2023/10/22 13:05:51;;;;;;;2.50;1.30;;;18.30;96.90;;;;;;5054624;28;20115;-65
2023/10/22 13:08:37;;;;;;;2.55;1.23;;;18.40;96.80;;;;;;5046332;28;20056;-65
2023/10/22 13:11:23;;;;;;;3.25;1.60;;;18.40;96.70;;;;;;5043031;28;20169;-65
2023/10/22 13:14:09;;;;;;;2.70;1.15;;;18.40;96.50;;;;;;5036048;28;20037;-65
2023/10/22 13:16:55;;;;;;;4.65;1.38;;;18.40;96.50;;;;;;5034967;28;20044;-65
2023/10/22 13:19:41;;;;;;;1.92;1.20;;;18.40;96.60;;;;;;5029814;28;20549;-66
2023/10/22 13:22:28;;;;;;;5.63;1.40;;;18.40;96.40;;;;;;5035691;28;20041;-65
2023/10/22 13:25:14;;;;;;;4.13;1.50;;;18.40;96.30;;;;;;5039797;28;20046;-65
2023/10/22 13:28:00;;;;;;;2.78;1.15;;;18.40;96.30;;;;;;5036318;28;20049;-65
2023/10/22 13:30:47;;;;;;;1.95;1.00;;;18.30;96.40;;;;;;5037553;28;20049;-66
2023/10/22 13:33:33;;;;;;;4.03;1.58;;;18.40;96.40;;;;;;5044621;28;20041;-65
2023/10/22 13:36:19;;;;;;;4.72;1.83;;;18.30;96.30;;;;;;5039468;28;20057;-65
2023/10/22 13:39:05;;;;;;;2.20;1.45;;;18.20;96.20;;;;;;5047144;28;20072;-66
2023/10/22 13:41:51;;;;;;;3.55;1.40;;;18.20;96.20;;;;;;5039950;28;20116;-65
2023/10/22 13:44:37;;;;;;;3.00;1.52;;;18.20;96.20;;;;;;5045426;28;20208;-64
2023/10/22 13:47:23;;;;;;;8.18;1.55;;;18.20;96.30;;;;;;5035377;28;20560;-64
2023/10/22 13:50:10;;;;;;;4.35;1.70;;;18.20;96.40;;;;;;5038608;28;20124;-64
2023/10/22 13:52:56;;;;;;;3.42;1.73;;;18.20;96.50;;;;;;5041888;28;20429;-64
2023/10/22 13:55:43;;;;;;;2.65;1.52;;;18.20;96.50;;;;;;5045188;28;20414;-64
2023/10/22 13:58:29;;;;;;;8.18;2.05;;;18.20;96.50;;;;;;5037945;28;20041;-65
2023/10/22 14:01:15;;;;;;;3.28;1.85;;;18.20;96.70;;;;;;5043682;28;20045;-64
2023/10/22 14:04:01;;;;;;;1.88;1.30;;;18.30;96.60;;;;;;5048352;28;20502;-64
2023/10/22 14:06:47;;;;;;;4.47;1.90;;;18.30;96.50;;;;;;5039413;28;20257;-64
2023/10/22 14:09:33;;;;;;;2.92;1.50;;;18.30;96.50;;;;;;5028040;28;20057;-65
2023/10/22 14:12:19;;;;;;;3.13;2.50;;;18.30;96.40;;;;;;5031083;28;20049;-64
2023/10/22 14:15:07;;;;;;;2.53;1.33;;;18.40;96.30;;;;;;5034025;28;20453;-64
2023/10/22 14:17:53;;;;;;;3.13;1.30;;;18.40;96.30;;;;;;5035681;28;20107;-64
2023/10/22 14:20:39;;;;;;;4.18;1.55;;;18.50;96.20;;;;;;5043972;28;20516;-64
2023/10/22 14:23:25;;;;;;;7.18;1.65;;;18.50;96.10;;;;;;5039364;28;20131;-65
2023/10/22 14:26:11;;;;;;;3.95;1.40;;;18.60;96.00;;;;;;5039539;28;20053;-64